createdAt,value
2022-11-30T10:22:14.721Z,11.00
2022-11-30T10:25:00.133Z,10.63
2022-11-30T10:27:41.972Z,9.50
2022-11-30T10:30:17.005Z,9.47
2022-11-30T10:32:48.325Z,10.53
2022-11-30T10:35:22.279Z,8.53
2022-11-30T10:37:54.231Z,8.87
2022-11-30T10:40:33.442Z,9.40
2022-11-30T10:43:10.546Z,10.10
2022-11-30T10:45:45.598Z,10.80
2022-11-30T10:48:18.981Z,10.03
2022-11-30T10:50:47.667Z,10.10
2022-11-30T10:53:17.216Z,8.40
2022-11-30T10:55:50.854Z,10.53
2022-11-30T10:58:24.004Z,8.13
2022-11-30T11:00:59.822Z,7.93
2022-11-30T11:03:28.846Z,9.57
2022-11-30T11:06:15.439Z,8.20
2022-11-30T11:08:47.028Z,8.03
2022-11-30T11:11:34.793Z,9.00
2022-11-30T11:14:16.390Z,8.57
2022-11-30T11:16:56.311Z,8.80
2022-11-30T11:19:37.630Z,8.57
2022-11-30T11:22:08.584Z,9.17
2022-11-30T11:24:38.112Z,6.93
2022-11-30T11:27:06.525Z,6.90
2022-11-30T11:29:36.256Z,7.30
2022-11-30T11:32:22.946Z,6.97
2022-11-30T11:34:51.632Z,7.23
2022-11-30T11:37:24.611Z,6.90
2022-11-30T11:40:06.960Z,7.37
2022-11-30T11:42:38.621Z,6.37
2022-11-30T11:45:16.149Z,6.17
2022-11-30T11:47:47.092Z,6.10
2022-11-30T11:51:05.125Z,5.30
2022-11-30T11:53:25.197Z,7.20
2022-11-30T11:56:00.592Z,8.50
2022-11-30T11:58:41.829Z,9.40
2022-11-30T12:01:39.272Z,7.90
2022-11-30T12:04:21.709Z,7.53
2022-11-30T12:06:53.811Z,7.93
2022-11-30T12:09:29.748Z,8.30
2022-11-30T12:11:59.301Z,8.00
2022-11-30T12:14:29.359Z,7.20
2022-11-30T12:17:20.247Z,9.30
2022-11-30T12:19:59.012Z,7.77
2022-11-30T12:22:52.599Z,9.57
2022-11-30T12:25:26.488Z,8.77
2022-11-30T12:28:05.755Z,9.07
2022-11-30T12:30:41.866Z,8.10
2022-11-30T12:33:16.674Z,8.33
2022-11-30T12:35:57.595Z,8.03
2022-11-30T12:38:36.864Z,7.73
2022-11-30T12:41:20.200Z,8.77
2022-11-30T12:43:55.760Z,8.80
2022-11-30T12:46:31.104Z,9.67
2022-11-30T12:49:14.289Z,9.23
2022-11-30T12:51:49.933Z,9.70
2022-11-30T12:54:27.282Z,8.53
2022-11-30T12:57:01.320Z,10.43
2022-11-30T12:59:38.374Z,11.33
2022-11-30T13:02:29.078Z,8.60
2022-11-30T13:05:04.039Z,9.80
2022-11-30T13:07:39.050Z,9.60
2022-11-30T13:10:19.893Z,10.27
2022-11-30T13:12:52.216Z,9.57
2022-11-30T13:15:24.898Z,9.77
2022-11-30T13:17:54.442Z,9.93
2022-11-30T13:20:26.748Z,8.93
2022-11-30T13:23:00.108Z,10.20
2022-11-30T13:26:07.024Z,10.27
2022-11-30T13:28:32.280Z,9.77
2022-11-30T13:31:07.493Z,9.10
2022-11-30T13:33:40.534Z,9.20
2022-11-30T13:36:24.151Z,8.43
2022-11-30T13:39:30.977Z,8.37
2022-11-30T13:42:31.524Z,8.30
2022-11-30T13:45:01.969Z,7.20
2022-11-30T13:47:34.468Z,7.10
2022-11-30T13:50:07.820Z,7.67
2022-11-30T13:53:08.595Z,7.40
2022-11-30T13:55:58.595Z,7.97
2022-11-30T13:58:27.889Z,7.87
2022-11-30T14:01:21.352Z,9.03
2022-11-30T14:04:30.471Z,7.97
2022-11-30T14:06:59.848Z,10.17
2022-11-30T14:10:07.265Z,9.00
2022-11-30T14:13:00.441Z,10.63
2022-11-30T14:15:55.298Z,9.77
2022-11-30T14:18:40.476Z,9.60
2022-11-30T14:21:34.634Z,9.37
2022-11-30T14:24:06.290Z,10.83
2022-11-30T14:26:39.318Z,10.77
2022-11-30T14:29:17.600Z,10.63
2022-11-30T14:31:54.011Z,10.27
2022-11-30T14:34:27.303Z,9.97
2022-11-30T14:37:00.460Z,10.70
2022-11-30T14:39:34.717Z,11.60
2022-11-30T14:42:03.814Z,10.77
2022-11-30T14:44:36.174Z,12.60
2022-11-30T14:47:15.244Z,12.93
2022-11-30T14:49:48.049Z,14.03
2022-11-30T14:52:34.785Z,13.13
2022-11-30T14:55:16.976Z,14.83
2022-11-30T14:57:50.312Z,13.40
2022-11-30T15:00:20.771Z,12.50
2022-11-30T15:02:50.500Z,14.13
2022-11-30T15:05:22.082Z,13.60
2022-11-30T15:07:52.111Z,14.20
2022-11-30T15:10:29.746Z,13.17
2022-11-30T15:12:58.911Z,13.37
2022-11-30T15:15:28.688Z,12.00
2022-11-30T15:17:58.527Z,13.73
2022-11-30T15:20:30.576Z,13.53
2022-11-30T15:23:01.123Z,13.47
2022-11-30T15:25:38.258Z,12.10
2022-11-30T15:28:07.945Z,11.20
2022-11-30T15:30:39.452Z,12.57
2022-11-30T15:33:07.606Z,13.00
2022-11-30T15:36:04.934Z,13.03
2022-11-30T15:38:27.352Z,13.60
2022-11-30T15:41:03.392Z,14.43
2022-11-30T15:43:37.763Z,14.50
2022-11-30T15:46:07.068Z,13.40
2022-11-30T15:48:39.279Z,14.90
2022-11-30T15:51:07.868Z,13.03
2022-11-30T15:53:50.075Z,12.37
2022-11-30T15:56:25.170Z,14.17
2022-11-30T15:59:02.799Z,13.53
2022-11-30T16:01:32.388Z,12.55
2022-11-30T16:04:08.108Z,12.50
2022-11-30T16:06:39.325Z,12.30
2022-11-30T16:09:20.470Z,12.60
2022-11-30T16:11:50.748Z,15.00
2022-11-30T16:14:18.797Z,13.40
2022-11-30T16:16:47.964Z,13.30
2022-11-30T16:19:16.233Z,12.60
2022-11-30T16:21:44.224Z,12.93
2022-11-30T16:24:15.867Z,12.80
2022-11-30T16:26:52.298Z,13.57
2022-11-30T16:29:20.725Z,13.23
2022-11-30T16:31:49.129Z,13.63
2022-11-30T16:34:17.314Z,12.80
2022-11-30T16:36:45.204Z,12.67
2022-11-30T16:39:14.448Z,13.27
2022-11-30T16:41:44.272Z,14.53
2022-11-30T16:44:14.756Z,13.87
2022-11-30T16:46:42.663Z,13.20
2022-11-30T16:49:10.870Z,13.43
2022-11-30T16:51:41.644Z,12.40
2022-11-30T16:54:12.423Z,13.10
2022-11-30T16:56:42.083Z,14.30
2022-11-30T16:59:16.274Z,13.73
2022-11-30T17:01:47.557Z,14.77
2022-11-30T17:04:19.998Z,15.10
2022-11-30T17:06:51.167Z,15.33
2022-11-30T17:09:21.696Z,13.07
2022-11-30T17:11:52.555Z,13.30
2022-11-30T17:14:21.964Z,13.47
2022-11-30T17:16:50.144Z,12.80
2022-11-30T17:19:18.682Z,13.30
2022-11-30T17:21:48.343Z,12.40
2022-11-30T17:24:16.497Z,13.30
2022-11-30T17:26:44.615Z,13.10
2022-11-30T17:29:14.246Z,11.05
2022-11-30T17:31:42.498Z,14.37
2022-11-30T17:34:10.615Z,13.37
2022-11-30T17:36:38.542Z,11.47
2022-11-30T17:39:07.919Z,13.90
2022-11-30T17:41:36.184Z,14.23
2022-11-30T17:44:04.400Z,12.77
2022-11-30T17:46:34.013Z,11.20
2022-11-30T17:49:02.447Z,13.83
2022-11-30T17:51:30.860Z,12.90
2022-11-30T17:53:59.152Z,11.70
2022-11-30T17:56:27.312Z,11.10
2022-11-30T17:58:55.226Z,12.30
2022-11-30T18:01:26.540Z,12.15
2022-11-30T18:07:11.688Z,12.80
2022-11-30T18:09:42.726Z,14.30
2022-11-30T18:12:12.235Z,14.73
2022-11-30T18:14:40.549Z,12.20
2022-11-30T18:17:08.653Z,12.83
2022-11-30T18:19:38.035Z,12.67
2022-11-30T18:22:06.102Z,12.50
2022-11-30T18:24:34.321Z,12.73
2022-11-30T18:27:02.237Z,14.37
2022-11-30T18:29:30.244Z,13.17
2022-11-30T18:31:58.484Z,12.60
2022-11-30T18:34:26.605Z,12.80
2022-11-30T18:36:56.181Z,14.63
2022-11-30T18:39:24.228Z,13.13
2022-11-30T18:41:52.174Z,13.20
2022-11-30T18:44:20.349Z,14.97
2022-11-30T18:46:48.259Z,12.40
2022-11-30T18:49:16.456Z,13.52
2022-11-30T18:51:44.351Z,14.03
2022-11-30T18:54:13.846Z,16.07
2022-11-30T18:56:42.068Z,14.67
2022-11-30T18:59:14.226Z,12.77
2022-11-30T19:01:42.811Z,14.43
2022-11-30T19:04:12.083Z,15.20
2022-11-30T19:06:41.632Z,13.52
2022-11-30T19:09:11.598Z,15.70
2022-11-30T19:11:42.647Z,14.47
2022-11-30T19:14:14.090Z,15.43
2022-11-30T19:16:42.462Z,15.57
2022-11-30T19:19:14.092Z,14.77
2022-11-30T19:21:47.345Z,15.20
2022-11-30T19:24:15.416Z,16.33
2022-11-30T19:26:44.762Z,15.53
2022-11-30T19:29:13.419Z,17.50
2022-11-30T19:31:41.338Z,14.27
2022-11-30T19:34:12.973Z,16.13
2022-11-30T19:36:41.749Z,13.70
2022-11-30T19:39:11.970Z,15.63
2022-11-30T19:41:39.994Z,17.35
2022-11-30T19:44:14.175Z,15.10
2022-11-30T19:46:42.447Z,16.20
2022-11-30T19:49:11.865Z,15.57
2022-11-30T19:51:39.825Z,14.33
2022-11-30T19:54:08.099Z,14.70
2022-11-30T19:56:37.260Z,16.20
2022-11-30T19:59:06.217Z,14.33
2022-11-30T20:01:36.222Z,13.57
2022-11-30T20:04:05.551Z,12.87
2022-11-30T20:06:36.067Z,15.57
2022-11-30T20:09:04.301Z,18.27
2022-11-30T20:11:32.722Z,16.20
2022-11-30T20:14:00.752Z,17.43
2022-11-30T20:16:29.491Z,17.50
2022-11-30T20:19:01.270Z,16.00
2022-11-30T20:21:31.089Z,16.40
2022-11-30T20:24:01.010Z,18.40
2022-11-30T20:26:31.719Z,16.27
2022-11-30T20:29:01.776Z,14.90
2022-11-30T20:31:31.362Z,16.90
2022-11-30T20:34:01.290Z,15.13
2022-11-30T20:36:29.365Z,15.65
2022-11-30T20:38:58.929Z,16.23
2022-11-30T20:41:27.318Z,15.73
2022-11-30T20:43:56.000Z,15.40
2022-11-30T20:46:26.059Z,14.80
2022-11-30T20:48:54.914Z,16.70
2022-11-30T20:51:33.428Z,16.45
2022-11-30T20:54:04.297Z,14.93
2022-11-30T20:56:32.365Z,15.45
2022-11-30T20:59:02.815Z,15.40
2022-11-30T21:01:31.702Z,16.00
2022-11-30T21:04:00.818Z,16.63
2022-11-30T21:06:31.095Z,16.43
2022-11-30T21:09:00.004Z,15.70
2022-11-30T21:11:29.482Z,16.53
2022-11-30T21:13:58.727Z,17.23
2022-11-30T21:16:29.453Z,16.03
2022-11-30T21:18:59.622Z,17.30
2022-11-30T21:21:31.864Z,15.95
2022-11-30T21:24:01.460Z,16.90
2022-11-30T21:26:31.287Z,15.07
2022-11-30T21:29:02.424Z,15.40
2022-11-30T21:31:31.114Z,16.57
2022-11-30T21:33:59.297Z,17.47
2022-11-30T21:36:27.538Z,17.30
2022-11-30T21:39:05.053Z,16.40
2022-11-30T21:41:34.902Z,15.63
2022-11-30T21:44:02.971Z,16.47
2022-11-30T21:46:31.111Z,17.67
2022-11-30T21:48:59.328Z,17.50
2022-11-30T21:51:29.696Z,16.03
2022-11-30T21:54:00.684Z,17.38
2022-11-30T21:56:30.164Z,15.80
2022-11-30T21:58:58.692Z,15.97
2022-11-30T22:01:29.028Z,16.33
2022-11-30T22:03:57.911Z,17.30
2022-11-30T22:06:27.137Z,15.70
2022-11-30T22:09:03.058Z,15.70
2022-11-30T22:11:32.089Z,15.98
2022-11-30T22:13:59.956Z,13.77
2022-11-30T22:16:35.657Z,16.77
2022-11-30T22:19:04.833Z,15.40
2022-11-30T22:21:34.054Z,15.97
2022-11-30T22:24:05.536Z,15.57
2022-11-30T22:26:35.180Z,15.93
2022-11-30T22:29:05.678Z,16.07
2022-11-30T22:31:36.179Z,14.97
2022-11-30T22:34:04.488Z,15.77
2022-11-30T22:36:35.033Z,14.50
2022-11-30T22:39:07.625Z,16.00
